sensor_id;sensor_type;location;lat;lon;timestamp;P1;durP1;ratioP1;P2;durP2;ratioP2
39882;SDS011;55824;52.220;21.040;2023-02-23T00:00:27;3.58;;;2.55;;
39882;SDS011;55824;52.220;21.040;2023-02-23T00:02:54;3.95;;;2.67;;
39882;SDS011;55824;52.220;21.040;2023-02-23T00:05:22;4.10;;;2.90;;
39882;SDS011;55824;52.220;21.040;2023-02-23T00:07:48;3.90;;;2.92;;
39882;SDS011;55824;52.220;21.040;2023-02-23T00:10:16;4.35;;;3.05;;
39882;SDS011;55824;52.220;21.040;2023-02-23T00:12:43;3.63;;;2.67;;
39882;SDS011;55824;52.220;21.040;2023-02-23T00:15:10;3.45;;;2.70;;
39882;SDS011;55824;52.220;21.040;2023-02-23T00:17:37;3.45;;;2.70;;
39882;SDS011;55824;52.220;21.040;2023-02-23T00:20:05;3.78;;;2.65;;
39882;SDS011;55824;52.220;21.040;2023-02-23T00:22:32;4.57;;;2.88;;
39882;SDS011;55824;52.220;21.040;2023-02-23T00:24:58;3.83;;;2.70;;
39882;SDS011;55824;52.220;21.040;2023-02-23T00:27:24;4.25;;;2.85;;
39882;SDS011;55824;52.220;21.040;2023-02-23T00:29:50;3.55;;;2.80;;
39882;SDS011;55824;52.220;21.040;2023-02-23T00:32:16;3.67;;;2.58;;
39882;SDS011;55824;52.220;21.040;2023-02-23T00:34:44;3.13;;;2.50;;
39882;SDS011;55824;52.220;21.040;2023-02-23T00:37:13;3.25;;;2.53;;
39882;SDS011;55824;52.220;21.040;2023-02-23T00:39:39;4.18;;;2.90;;
39882;SDS011;55824;52.220;21.040;2023-02-23T00:42:05;3.47;;;2.65;;
39882;SDS011;55824;52.220;21.040;2023-02-23T00:44:31;3.85;;;2.83;;
39882;SDS011;55824;52.220;21.040;2023-02-23T00:46:58;3.83;;;2.97;;
39882;SDS011;55824;52.220;21.040;2023-02-23T00:49:24;3.67;;;2.70;;
39882;SDS011;55824;52.220;21.040;2023-02-23T00:51:51;3.67;;;2.92;;
39882;SDS011;55824;52.220;21.040;2023-02-23T00:54:17;3.63;;;2.47;;
39882;SDS011;55824;52.220;21.040;2023-02-23T00:56:44;3.88;;;2.75;;
39882;SDS011;55824;52.220;21.040;2023-02-23T00:59:10;3.55;;;2.63;;
39882;SDS011;55824;52.220;21.040;2023-02-23T01:01:37;3.83;;;2.60;;
39882;SDS011;55824;52.220;21.040;2023-02-23T01:04:03;3.95;;;2.70;;
39882;SDS011;55824;52.220;21.040;2023-02-23T01:06:30;3.47;;;2.55;;
39882;SDS011;55824;52.220;21.040;2023-02-23T01:08:56;3.17;;;2.38;;
39882;SDS011;55824;52.220;21.040;2023-02-23T01:11:23;3.13;;;2.40;;
39882;SDS011;55824;52.220;21.040;2023-02-23T01:13:54;4.20;;;2.50;;
39882;SDS011;55824;52.220;21.040;2023-02-23T01:16:21;2.88;;;2.30;;
39882;SDS011;55824;52.220;21.040;2023-02-23T01:18:50;3.22;;;2.53;;
39882;SDS011;55824;52.220;21.040;2023-02-23T01:21:20;3.50;;;2.70;;
39882;SDS011;55824;52.220;21.040;2023-02-23T01:23:47;2.97;;;2.33;;
39882;SDS011;55824;52.220;21.040;2023-02-23T01:26:16;2.95;;;2.30;;
39882;SDS011;55824;52.220;21.040;2023-02-23T01:28:47;5.63;;;2.90;;
39882;SDS011;55824;52.220;21.040;2023-02-23T01:31:13;4.53;;;2.80;;
39882;SDS011;55824;52.220;21.040;2023-02-23T01:33:39;3.33;;;2.22;;
39882;SDS011;55824;52.220;21.040;2023-02-23T01:36:05;3.78;;;2.50;;
39882;SDS011;55824;52.220;21.040;2023-02-23T01:38:31;3.13;;;2.50;;
39882;SDS011;55824;52.220;21.040;2023-02-23T01:40:57;4.07;;;2.47;;
39882;SDS011;55824;52.220;21.040;2023-02-23T01:43:23;4.15;;;2.90;;
39882;SDS011;55824;52.220;21.040;2023-02-23T01:45:51;3.92;;;2.72;;
39882;SDS011;55824;52.220;21.040;2023-02-23T01:48:23;3.22;;;2.40;;
39882;SDS011;55824;52.220;21.040;2023-02-23T01:50:55;3.65;;;2.80;;
39882;SDS011;55824;52.220;21.040;2023-02-23T01:53:22;4.13;;;2.88;;
39882;SDS011;55824;52.220;21.040;2023-02-23T01:55:51;3.45;;;2.63;;
39882;SDS011;55824;52.220;21.040;2023-02-23T01:58:19;3.95;;;2.67;;
39882;SDS011;55824;52.220;21.040;2023-02-23T02:00:46;3.72;;;2.50;;
39882;SDS011;55824;52.220;21.040;2023-02-23T02:03:18;3.88;;;3.10;;
39882;SDS011;55824;52.220;21.040;2023-02-23T02:05:47;3.63;;;2.60;;
39882;SDS011;55824;52.220;21.040;2023-02-23T02:08:14;3.47;;;3.00;;
39882;SDS011;55824;52.220;21.040;2023-02-23T02:10:42;2.90;;;2.35;;
39882;SDS011;55824;52.220;21.040;2023-02-23T02:13:14;3.28;;;2.40;;
39882;SDS011;55824;52.220;21.040;2023-02-23T02:26:02;3.05;;;2.42;;
39882;SDS011;55824;52.220;21.040;2023-02-23T02:28:41;2.55;;;2.30;;
39882;SDS011;55824;52.220;21.040;2023-02-23T02:39:14;3.58;;;2.60;;
39882;SDS011;55824;52.220;21.040;2023-02-23T02:46:59;3.15;;;2.42;;
39882;SDS011;55824;52.220;21.040;2023-02-23T02:52:30;3.53;;;2.40;;
39882;SDS011;55824;52.220;21.040;2023-02-23T02:55:04;3.47;;;2.63;;
39882;SDS011;55824;52.220;21.040;2023-02-23T02:57:33;3.30;;;2.53;;
39882;SDS011;55824;52.220;21.040;2023-02-23T02:59:59;3.97;;;2.67;;
39882;SDS011;55824;52.220;21.040;2023-02-23T03:02:44;4.15;;;2.80;;
39882;SDS011;55824;52.220;21.040;2023-02-23T03:05:33;3.67;;;2.38;;
39882;SDS011;55824;52.220;21.040;2023-02-23T03:11:39;3.85;;;2.67;;
39882;SDS011;55824;52.220;21.040;2023-02-23T03:14:32;4.05;;;2.92;;
39882;SDS011;55824;52.220;21.040;2023-02-23T03:17:37;3.22;;;2.60;;
39882;SDS011;55824;52.220;21.040;2023-02-23T03:23:39;3.72;;;2.65;;
39882;SDS011;55824;52.220;21.040;2023-02-23T03:26:59;3.10;;;2.50;;
39882;SDS011;55824;52.220;21.040;2023-02-23T03:29:41;3.67;;;2.88;;
39882;SDS011;55824;52.220;21.040;2023-02-23T03:32:29;3.75;;;2.67;;
39882;SDS011;55824;52.220;21.040;2023-02-23T03:35:22;3.50;;;2.45;;
39882;SDS011;55824;52.220;21.040;2023-02-23T03:38:10;4.00;;;2.70;;
39882;SDS011;55824;52.220;21.040;2023-02-23T03:40:56;4.18;;;2.72;;
39882;SDS011;55824;52.220;21.040;2023-02-23T03:43:43;3.28;;;2.55;;
39882;SDS011;55824;52.220;21.040;2023-02-23T03:46:29;3.33;;;2.65;;
39882;SDS011;55824;52.220;21.040;2023-02-23T03:49:14;3.65;;;2.67;;
39882;SDS011;55824;52.220;21.040;2023-02-23T03:52:02;3.65;;;2.83;;
39882;SDS011;55824;52.220;21.040;2023-02-23T03:54:52;2.88;;;2.45;;
39882;SDS011;55824;52.220;21.040;2023-02-23T03:57:38;3.13;;;2.40;;
39882;SDS011;55824;52.220;21.040;2023-02-23T04:00:26;4.82;;;2.72;;
39882;SDS011;55824;52.220;21.040;2023-02-23T04:03:13;3.28;;;2.50;;
39882;SDS011;55824;52.220;21.040;2023-02-23T04:05:59;3.70;;;2.53;;
39882;SDS011;55824;52.220;21.040;2023-02-23T04:08:43;3.35;;;2.38;;
39882;SDS011;55824;52.220;21.040;2023-02-23T04:11:30;4.18;;;2.80;;
39882;SDS011;55824;52.220;21.040;2023-02-23T04:14:23;4.22;;;3.35;;
39882;SDS011;55824;52.220;21.040;2023-02-23T04:16:50;4.10;;;2.58;;
39882;SDS011;55824;52.220;21.040;2023-02-23T04:19:17;3.88;;;2.70;;
39882;SDS011;55824;52.220;21.040;2023-02-23T04:21:43;4.03;;;2.90;;
39882;SDS011;55824;52.220;21.040;2023-02-23T04:24:09;3.72;;;2.75;;
39882;SDS011;55824;52.220;21.040;2023-02-23T04:26:35;4.68;;;3.22;;
39882;SDS011;55824;52.220;21.040;2023-02-23T04:29:02;3.42;;;2.63;;
39882;SDS011;55824;52.220;21.040;2023-02-23T04:31:28;4.07;;;2.80;;
39882;SDS011;55824;52.220;21.040;2023-02-23T04:33:54;3.53;;;2.72;;
39882;SDS011;55824;52.220;21.040;2023-02-23T04:36:20;3.70;;;2.70;;
39882;SDS011;55824;52.220;21.040;2023-02-23T04:38:46;4.00;;;2.90;;
39882;SDS011;55824;52.220;21.040;2023-02-23T04:41:12;3.55;;;2.83;;
39882;SDS011;55824;52.220;21.040;2023-02-23T04:43:38;3.85;;;2.83;;
39882;SDS011;55824;52.220;21.040;2023-02-23T04:46:04;4.13;;;2.80;;
39882;SDS011;55824;52.220;21.040;2023-02-23T04:48:30;3.85;;;2.65;;
39882;SDS011;55824;52.220;21.040;2023-02-23T04:50:56;4.78;;;2.97;;
39882;SDS011;55824;52.220;21.040;2023-02-23T04:53:22;3.47;;;2.78;;
39882;SDS011;55824;52.220;21.040;2023-02-23T04:55:51;4.55;;;2.85;;
39882;SDS011;55824;52.220;21.040;2023-02-23T04:58:17;4.20;;;2.80;;
39882;SDS011;55824;52.220;21.040;2023-02-23T05:00:43;3.65;;;2.50;;
39882;SDS011;55824;52.220;21.040;2023-02-23T05:03:09;4.82;;;3.10;;
39882;SDS011;55824;52.220;21.040;2023-02-23T05:05:36;3.88;;;2.80;;
39882;SDS011;55824;52.220;21.040;2023-02-23T05:08:02;4.00;;;2.80;;
39882;SDS011;55824;52.220;21.040;2023-02-23T05:10:28;3.95;;;2.55;;
39882;SDS011;55824;52.220;21.040;2023-02-23T05:12:54;4.20;;;2.80;;
39882;SDS011;55824;52.220;21.040;2023-02-23T05:15:20;3.78;;;3.00;;
39882;SDS011;55824;52.220;21.040;2023-02-23T05:17:46;3.90;;;2.70;;
39882;SDS011;55824;52.220;21.040;2023-02-23T05:20:12;3.97;;;2.80;;
39882;SDS011;55824;52.220;21.040;2023-02-23T05:22:39;3.45;;;2.55;;
39882;SDS011;55824;52.220;21.040;2023-02-23T05:25:05;3.95;;;2.80;;
39882;SDS011;55824;52.220;21.040;2023-02-23T05:27:31;3.88;;;2.40;;
39882;SDS011;55824;52.220;21.040;2023-02-23T05:29:58;4.10;;;3.20;;
39882;SDS011;55824;52.220;21.040;2023-02-23T05:32:25;3.80;;;2.83;;
39882;SDS011;55824;52.220;21.040;2023-02-23T05:34:50;3.42;;;2.70;;
39882;SDS011;55824;52.220;21.040;2023-02-23T05:37:16;3.55;;;2.55;;
39882;SDS011;55824;52.220;21.040;2023-02-23T05:39:44;3.85;;;2.65;;
39882;SDS011;55824;52.220;21.040;2023-02-23T05:42:10;3.60;;;2.47;;
39882;SDS011;55824;52.220;21.040;2023-02-23T05:44:36;3.95;;;2.67;;
39882;SDS011;55824;52.220;21.040;2023-02-23T05:47:02;4.90;;;3.03;;
39882;SDS011;55824;52.220;21.040;2023-02-23T05:49:28;5.50;;;3.22;;
39882;SDS011;55824;52.220;21.040;2023-02-23T05:51:54;3.95;;;2.80;;
39882;SDS011;55824;52.220;21.040;2023-02-23T05:54:20;3.10;;;2.45;;
39882;SDS011;55824;52.220;21.040;2023-02-23T05:56:46;5.55;;;3.05;;
39882;SDS011;55824;52.220;21.040;2023-02-23T05:59:13;4.22;;;2.58;;
39882;SDS011;55824;52.220;21.040;2023-02-23T06:01:41;3.65;;;2.70;;
39882;SDS011;55824;52.220;21.040;2023-02-23T06:04:07;3.90;;;2.80;;
39882;SDS011;55824;52.220;21.040;2023-02-23T06:06:33;3.75;;;2.65;;
39882;SDS011;55824;52.220;21.040;2023-02-23T06:09:00;4.00;;;2.97;;
39882;SDS011;55824;52.220;21.040;2023-02-23T06:11:27;4.28;;;2.58;;
39882;SDS011;55824;52.220;21.040;2023-02-23T06:13:53;4.43;;;2.85;;
39882;SDS011;55824;52.220;21.040;2023-02-23T06:16:19;3.90;;;2.72;;
39882;SDS011;55824;52.220;21.040;2023-02-23T06:18:45;3.58;;;2.80;;
39882;SDS011;55824;52.220;21.040;2023-02-23T06:21:11;4.07;;;2.80;;
39882;SDS011;55824;52.220;21.040;2023-02-23T06:23:38;3.20;;;2.47;;
39882;SDS011;55824;52.220;21.040;2023-02-23T06:26:04;3.78;;;2.83;;
39882;SDS011;55824;52.220;21.040;2023-02-23T06:28:30;4.13;;;2.60;;
39882;SDS011;55824;52.220;21.040;2023-02-23T06:30:56;3.65;;;2.63;;
39882;SDS011;55824;52.220;21.040;2023-02-23T06:33:22;3.67;;;2.65;;
39882;SDS011;55824;52.220;21.040;2023-02-23T06:35:49;3.50;;;2.47;;
39882;SDS011;55824;52.220;21.040;2023-02-23T06:38:15;3.80;;;2.72;;
39882;SDS011;55824;52.220;21.040;2023-02-23T06:40:41;3.05;;;2.25;;
39882;SDS011;55824;52.220;21.040;2023-02-23T06:43:07;4.28;;;2.60;;
39882;SDS011;55824;52.220;21.040;2023-02-23T06:45:33;3.90;;;2.63;;
39882;SDS011;55824;52.220;21.040;2023-02-23T06:47:59;3.55;;;2.83;;
39882;SDS011;55824;52.220;21.040;2023-02-23T06:50:26;4.13;;;2.97;;
39882;SDS011;55824;52.220;21.040;2023-02-23T06:52:52;3.72;;;2.65;;
39882;SDS011;55824;52.220;21.040;2023-02-23T06:55:18;4.50;;;2.80;;
39882;SDS011;55824;52.220;21.040;2023-02-23T06:57:44;4.50;;;2.80;;
39882;SDS011;55824;52.220;21.040;2023-02-23T07:00:13;4.40;;;2.65;;
39882;SDS011;55824;52.220;21.040;2023-02-23T07:02:41;5.00;;;3.00;;
39882;SDS011;55824;52.220;21.040;2023-02-23T07:05:08;4.70;;;2.75;;
39882;SDS011;55824;52.220;21.040;2023-02-23T07:07:34;4.13;;;2.47;;
39882;SDS011;55824;52.220;21.040;2023-02-23T07:10:00;4.72;;;3.13;;
39882;SDS011;55824;52.220;21.040;2023-02-23T07:12:26;5.53;;;2.70;;
39882;SDS011;55824;52.220;21.040;2023-02-23T07:14:52;4.47;;;2.80;;
39882;SDS011;55824;52.220;21.040;2023-02-23T07:17:18;4.57;;;2.50;;
39882;SDS011;55824;52.220;21.040;2023-02-23T07:19:44;4.28;;;2.70;;
39882;SDS011;55824;52.220;21.040;2023-02-23T07:22:10;4.15;;;2.70;;
39882;SDS011;55824;52.220;21.040;2023-02-23T07:24:36;3.42;;;2.67;;
39882;SDS011;55824;52.220;21.040;2023-02-23T07:27:02;4.47;;;2.55;;
39882;SDS011;55824;52.220;21.040;2023-02-23T07:29:28;5.28;;;2.92;;
39882;SDS011;55824;52.220;21.040;2023-02-23T07:31:54;4.15;;;2.88;;
39882;SDS011;55824;52.220;21.040;2023-02-23T07:34:20;3.72;;;2.90;;
39882;SDS011;55824;52.220;21.040;2023-02-23T07:36:46;4.38;;;2.97;;
39882;SDS011;55824;52.220;21.040;2023-02-23T07:39:12;3.47;;;2.63;;
39882;SDS011;55824;52.220;21.040;2023-02-23T07:41:38;4.03;;;2.72;;
39882;SDS011;55824;52.220;21.040;2023-02-23T07:44:04;4.03;;;2.72;;
39882;SDS011;55824;52.220;21.040;2023-02-23T07:46:30;4.95;;;2.75;;
39882;SDS011;55824;52.220;21.040;2023-02-23T07:48:56;3.42;;;2.58;;
39882;SDS011;55824;52.220;21.040;2023-02-23T07:51:22;4.22;;;2.85;;
39882;SDS011;55824;52.220;21.040;2023-02-23T07:53:48;4.07;;;2.80;;
39882;SDS011;55824;52.220;21.040;2023-02-23T07:56:14;3.75;;;2.85;;
39882;SDS011;55824;52.220;21.040;2023-02-23T07:58:41;3.72;;;2.78;;
39882;SDS011;55824;52.220;21.040;2023-02-23T08:01:08;3.88;;;2.83;;
39882;SDS011;55824;52.220;21.040;2023-02-23T08:03:34;4.68;;;2.80;;
39882;SDS011;55824;52.220;21.040;2023-02-23T08:06:00;5.35;;;2.63;;
39882;SDS011;55824;52.220;21.040;2023-02-23T08:08:26;4.90;;;3.10;;
39882;SDS011;55824;52.220;21.040;2023-02-23T08:11:02;4.43;;;3.20;;
39882;SDS011;55824;52.220;21.040;2023-02-23T08:13:29;3.97;;;2.90;;
39882;SDS011;55824;52.220;21.040;2023-02-23T08:15:55;4.30;;;3.10;;
39882;SDS011;55824;52.220;21.040;2023-02-23T08:18:22;4.22;;;2.92;;
39882;SDS011;55824;52.220;21.040;2023-02-23T08:20:48;4.15;;;2.78;;
39882;SDS011;55824;52.220;21.040;2023-02-23T08:23:14;4.68;;;2.72;;
39882;SDS011;55824;52.220;21.040;2023-02-23T08:25:42;4.50;;;2.88;;
39882;SDS011;55824;52.220;21.040;2023-02-23T08:28:08;4.20;;;3.15;;
39882;SDS011;55824;52.220;21.040;2023-02-23T08:30:34;4.53;;;2.70;;
39882;SDS011;55824;52.220;21.040;2023-02-23T08:33:00;3.83;;;2.88;;
39882;SDS011;55824;52.220;21.040;2023-02-23T08:35:26;5.88;;;3.13;;
39882;SDS011;55824;52.220;21.040;2023-02-23T08:37:55;4.05;;;3.00;;
39882;SDS011;55824;52.220;21.040;2023-02-23T08:40:21;6.80;;;3.38;;
39882;SDS011;55824;52.220;21.040;2023-02-23T08:42:47;4.35;;;3.15;;
39882;SDS011;55824;52.220;21.040;2023-02-23T08:45:16;4.20;;;3.08;;
39882;SDS011;55824;52.220;21.040;2023-02-23T08:47:41;3.90;;;2.92;;
39882;SDS011;55824;52.220;21.040;2023-02-23T08:50:08;5.13;;;3.30;;
39882;SDS011;55824;52.220;21.040;2023-02-23T08:52:35;4.95;;;3.70;;
39882;SDS011;55824;52.220;21.040;2023-02-23T08:55:01;4.88;;;3.53;;
39882;SDS011;55824;52.220;21.040;2023-02-23T08:57:27;4.32;;;2.78;;
39882;SDS011;55824;52.220;21.040;2023-02-23T08:59:53;3.58;;;2.63;;
39882;SDS011;55824;52.220;21.040;2023-02-23T09:02:19;4.72;;;2.90;;
39882;SDS011;55824;52.220;21.040;2023-02-23T09:04:46;6.22;;;3.03;;
39882;SDS011;55824;52.220;21.040;2023-02-23T09:07:14;4.45;;;3.13;;
39882;SDS011;55824;52.220;21.040;2023-02-23T09:09:40;4.60;;;3.38;;
39882;SDS011;55824;52.220;21.040;2023-02-23T09:12:06;5.45;;;3.00;;
39882;SDS011;55824;52.220;21.040;2023-02-23T09:14:32;4.30;;;3.25;;
39882;SDS011;55824;52.220;21.040;2023-02-23T09:17:00;4.63;;;3.28;;
39882;SDS011;55824;52.220;21.040;2023-02-23T09:19:26;6.07;;;3.33;;
39882;SDS011;55824;52.220;21.040;2023-02-23T09:21:52;4.45;;;3.08;;
39882;SDS011;55824;52.220;21.040;2023-02-23T09:24:19;4.15;;;3.00;;
39882;SDS011;55824;52.220;21.040;2023-02-23T09:26:45;4.95;;;3.22;;
39882;SDS011;55824;52.220;21.040;2023-02-23T09:29:11;4.55;;;3.10;;
39882;SDS011;55824;52.220;21.040;2023-02-23T09:31:37;4.10;;;3.03;;
39882;SDS011;55824;52.220;21.040;2023-02-23T09:34:03;4.63;;;3.10;;
39882;SDS011;55824;52.220;21.040;2023-02-23T09:36:29;4.28;;;3.20;;
39882;SDS011;55824;52.220;21.040;2023-02-23T09:38:56;6.32;;;3.22;;
39882;SDS011;55824;52.220;21.040;2023-02-23T09:43:58;4.72;;;3.28;;
39882;SDS011;55824;52.220;21.040;2023-02-23T09:49:16;5.38;;;3.30;;
39882;SDS011;55824;52.220;21.040;2023-02-23T09:51:43;4.28;;;3.10;;
39882;SDS011;55824;52.220;21.040;2023-02-23T09:54:12;5.47;;;3.65;;
39882;SDS011;55824;52.220;21.040;2023-02-23T09:56:46;4.85;;;3.03;;
39882;SDS011;55824;52.220;21.040;2023-02-23T09:59:13;4.30;;;3.03;;
39882;SDS011;55824;52.220;21.040;2023-02-23T10:04:42;5.40;;;3.10;;
39882;SDS011;55824;52.220;21.040;2023-02-23T10:12:10;4.60;;;3.40;;
39882;SDS011;55824;52.220;21.040;2023-02-23T10:14:52;4.13;;;2.90;;
39882;SDS011;55824;52.220;21.040;2023-02-23T10:22:33;4.72;;;3.38;;
39882;SDS011;55824;52.220;21.040;2023-02-23T10:25:01;4.50;;;3.30;;
39882;SDS011;55824;52.220;21.040;2023-02-23T10:27:31;5.00;;;3.50;;
39882;SDS011;55824;52.220;21.040;2023-02-23T10:30:01;4.57;;;3.40;;
39882;SDS011;55824;52.220;21.040;2023-02-23T10:35:14;4.78;;;3.47;;
39882;SDS011;55824;52.220;21.040;2023-02-23T10:37:41;4.95;;;3.50;;
39882;SDS011;55824;52.220;21.040;2023-02-23T10:40:13;4.45;;;3.13;;
39882;SDS011;55824;52.220;21.040;2023-02-23T10:42:40;4.70;;;3.33;;
39882;SDS011;55824;52.220;21.040;2023-02-23T10:45:13;5.85;;;3.50;;
39882;SDS011;55824;52.220;21.040;2023-02-23T10:47:43;4.25;;;2.90;;
39882;SDS011;55824;52.220;21.040;2023-02-23T10:50:10;5.13;;;3.30;;
39882;SDS011;55824;52.220;21.040;2023-02-23T10:52:41;4.63;;;3.13;;
39882;SDS011;55824;52.220;21.040;2023-02-23T10:55:30;4.20;;;3.03;;
39882;SDS011;55824;52.220;21.040;2023-02-23T10:58:14;4.32;;;3.03;;
39882;SDS011;55824;52.220;21.040;2023-02-23T11:00:51;4.75;;;3.35;;
39882;SDS011;55824;52.220;21.040;2023-02-23T11:03:21;4.43;;;3.17;;
39882;SDS011;55824;52.220;21.040;2023-02-23T11:05:48;5.40;;;3.40;;
39882;SDS011;55824;52.220;21.040;2023-02-23T11:08:32;3.97;;;2.80;;
39882;SDS011;55824;52.220;21.040;2023-02-23T11:13:32;4.00;;;3.05;;
39882;SDS011;55824;52.220;21.040;2023-02-23T11:18:31;4.95;;;3.22;;
39882;SDS011;55824;52.220;21.040;2023-02-23T11:20:57;3.95;;;2.90;;
39882;SDS011;55824;52.220;21.040;2023-02-23T11:23:24;4.78;;;3.28;;
39882;SDS011;55824;52.220;21.040;2023-02-23T11:25:53;3.75;;;2.75;;
39882;SDS011;55824;52.220;21.040;2023-02-23T11:28:25;4.88;;;3.60;;
39882;SDS011;55824;52.220;21.040;2023-02-23T11:30:54;4.93;;;3.40;;
39882;SDS011;55824;52.220;21.040;2023-02-23T11:33:22;5.95;;;3.50;;
39882;SDS011;55824;52.220;21.040;2023-02-23T11:35:58;4.10;;;3.22;;
39882;SDS011;55824;52.220;21.040;2023-02-23T11:38:27;6.93;;;4.03;;
39882;SDS011;55824;52.220;21.040;2023-02-23T11:40:57;5.93;;;3.40;;
39882;SDS011;55824;52.220;21.040;2023-02-23T11:43:23;4.43;;;3.30;;
39882;SDS011;55824;52.220;21.040;2023-02-23T11:45:50;4.97;;;3.10;;
39882;SDS011;55824;52.220;21.040;2023-02-23T11:51:02;4.25;;;3.05;;
39882;SDS011;55824;52.220;21.040;2023-02-23T11:53:36;4.80;;;3.35;;
39882;SDS011;55824;52.220;21.040;2023-02-23T11:56:04;4.80;;;3.30;;
39882;SDS011;55824;52.220;21.040;2023-02-23T11:58:45;4.57;;;3.22;;
39882;SDS011;55824;52.220;21.040;2023-02-23T12:01:13;4.22;;;3.30;;
39882;SDS011;55824;52.220;21.040;2023-02-23T12:03:48;5.20;;;3.70;;
39882;SDS011;55824;52.220;21.040;2023-02-23T12:06:26;5.93;;;3.70;;
39882;SDS011;55824;52.220;21.040;2023-02-23T12:08:54;6.22;;;3.50;;
39882;SDS011;55824;52.220;21.040;2023-02-23T12:11:23;5.30;;;3.42;;
39882;SDS011;55824;52.220;21.040;2023-02-23T12:13:55;4.65;;;3.33;;
39882;SDS011;55824;52.220;21.040;2023-02-23T12:16:27;5.05;;;3.25;;
39882;SDS011;55824;52.220;21.040;2023-02-23T12:19:14;5.50;;;3.53;;
39882;SDS011;55824;52.220;21.040;2023-02-23T12:26:44;5.30;;;3.50;;
39882;SDS011;55824;52.220;21.040;2023-02-23T12:29:22;3.85;;;2.97;;
39882;SDS011;55824;52.220;21.040;2023-02-23T12:31:57;4.78;;;3.20;;
39882;SDS011;55824;52.220;21.040;2023-02-23T12:37:01;3.90;;;2.85;;
39882;SDS011;55824;52.220;21.040;2023-02-23T12:39:42;5.13;;;3.43;;
39882;SDS011;55824;52.220;21.040;2023-02-23T12:44:42;4.95;;;3.28;;
39882;SDS011;55824;52.220;21.040;2023-02-23T12:47:19;5.60;;;3.63;;
39882;SDS011;55824;52.220;21.040;2023-02-23T12:49:51;5.35;;;3.22;;
39882;SDS011;55824;52.220;21.040;2023-02-23T12:52:23;3.85;;;2.95;;
39882;SDS011;55824;52.220;21.040;2023-02-23T12:54:50;5.07;;;3.50;;
39882;SDS011;55824;52.220;21.040;2023-02-23T13:05:25;8.30;;;3.67;;
39882;SDS011;55824;52.220;21.040;2023-02-23T13:08:02;4.80;;;3.25;;
39882;SDS011;55824;52.220;21.040;2023-02-23T13:20:41;5.50;;;4.13;;
39882;SDS011;55824;52.220;21.040;2023-02-23T13:26:14;4.47;;;3.17;;
39882;SDS011;55824;52.220;21.040;2023-02-23T13:28:48;5.78;;;3.70;;
39882;SDS011;55824;52.220;21.040;2023-02-23T13:31:21;4.68;;;3.22;;
39882;SDS011;55824;52.220;21.040;2023-02-23T13:33:47;5.07;;;3.67;;
39882;SDS011;55824;52.220;21.040;2023-02-23T13:36:13;5.55;;;3.13;;
39882;SDS011;55824;52.220;21.040;2023-02-23T13:38:45;4.65;;;3.38;;
39882;SDS011;55824;52.220;21.040;2023-02-23T13:43:48;5.53;;;3.30;;
39882;SDS011;55824;52.220;21.040;2023-02-23T13:46:24;4.25;;;3.15;;
39882;SDS011;55824;52.220;21.040;2023-02-23T13:49:15;5.45;;;3.33;;
39882;SDS011;55824;52.220;21.040;2023-02-23T13:51:40;4.47;;;3.10;;
39882;SDS011;55824;52.220;21.040;2023-02-23T13:56:45;4.50;;;3.03;;
39882;SDS011;55824;52.220;21.040;2023-02-23T13:59:18;5.25;;;3.33;;
39882;SDS011;55824;52.220;21.040;2023-02-23T14:01:46;5.22;;;3.22;;
39882;SDS011;55824;52.220;21.040;2023-02-23T14:04:14;4.63;;;2.95;;
39882;SDS011;55824;52.220;21.040;2023-02-23T14:06:49;4.57;;;3.22;;
39882;SDS011;55824;52.220;21.040;2023-02-23T14:09:19;5.45;;;3.33;;
39882;SDS011;55824;52.220;21.040;2023-02-23T14:11:49;4.97;;;3.42;;
39882;SDS011;55824;52.220;21.040;2023-02-23T14:19:43;5.57;;;3.55;;
39882;SDS011;55824;52.220;21.040;2023-02-23T14:22:28;4.65;;;3.30;;
39882;SDS011;55824;52.220;21.040;2023-02-23T14:27:43;5.60;;;3.67;;
39882;SDS011;55824;52.220;21.040;2023-02-23T14:32:39;5.82;;;3.38;;
39882;SDS011;55824;52.220;21.040;2023-02-23T14:35:07;4.90;;;3.88;;
39882;SDS011;55824;52.220;21.040;2023-02-23T14:37:58;5.32;;;3.63;;
39882;SDS011;55824;52.220;21.040;2023-02-23T14:40:29;6.00;;;4.00;;
39882;SDS011;55824;52.220;21.040;2023-02-23T14:42:56;5.70;;;3.60;;
39882;SDS011;55824;52.220;21.040;2023-02-23T14:47:51;4.82;;;3.10;;
39882;SDS011;55824;52.220;21.040;2023-02-23T14:50:28;4.35;;;3.30;;
39882;SDS011;55824;52.220;21.040;2023-02-23T14:52:54;5.15;;;3.30;;
39882;SDS011;55824;52.220;21.040;2023-02-23T14:55:23;5.65;;;3.40;;
39882;SDS011;55824;52.220;21.040;2023-02-23T14:57:49;5.32;;;3.22;;
39882;SDS011;55824;52.220;21.040;2023-02-23T15:02:54;5.80;;;3.58;;
39882;SDS011;55824;52.220;21.040;2023-02-23T15:05:22;6.07;;;3.33;;
39882;SDS011;55824;52.220;21.040;2023-02-23T15:07:48;6.25;;;3.35;;
39882;SDS011;55824;52.220;21.040;2023-02-23T15:12:51;5.22;;;3.53;;
39882;SDS011;55824;52.220;21.040;2023-02-23T15:15:18;5.00;;;3.15;;
39882;SDS011;55824;52.220;21.040;2023-02-23T15:17:46;5.18;;;3.22;;
39882;SDS011;55824;52.220;21.040;2023-02-23T15:20:14;5.85;;;3.50;;
39882;SDS011;55824;52.220;21.040;2023-02-23T15:22:40;4.97;;;3.63;;
39882;SDS011;55824;52.220;21.040;2023-02-23T15:27:42;6.07;;;3.65;;
39882;SDS011;55824;52.220;21.040;2023-02-23T15:32:47;6.05;;;4.05;;
39882;SDS011;55824;52.220;21.040;2023-02-23T15:35:13;4.90;;;3.60;;
39882;SDS011;55824;52.220;21.040;2023-02-23T15:37:46;6.72;;;3.53;;
39882;SDS011;55824;52.220;21.040;2023-02-23T15:40:16;8.13;;;3.85;;
39882;SDS011;55824;52.220;21.040;2023-02-23T15:42:44;5.32;;;3.67;;
39882;SDS011;55824;52.220;21.040;2023-02-23T15:45:23;5.43;;;3.63;;
39882;SDS011;55824;52.220;21.040;2023-02-23T15:47:52;4.57;;;3.38;;
39882;SDS011;55824;52.220;21.040;2023-02-23T15:50:23;5.35;;;3.88;;
39882;SDS011;55824;52.220;21.040;2023-02-23T15:52:51;5.57;;;3.47;;
39882;SDS011;55824;52.220;21.040;2023-02-23T15:55:41;5.10;;;3.55;;
39882;SDS011;55824;52.220;21.040;2023-02-23T16:00:40;4.93;;;3.70;;
39882;SDS011;55824;52.220;21.040;2023-02-23T16:03:18;5.60;;;3.72;;
39882;SDS011;55824;52.220;21.040;2023-02-23T16:05:53;5.70;;;3.72;;
39882;SDS011;55824;52.220;21.040;2023-02-23T16:08:22;4.93;;;3.35;;
39882;SDS011;55824;52.220;21.040;2023-02-23T16:10:49;6.00;;;3.85;;
39882;SDS011;55824;52.220;21.040;2023-02-23T16:13:18;5.47;;;3.60;;
39882;SDS011;55824;52.220;21.040;2023-02-23T16:15:45;5.35;;;3.97;;
39882;SDS011;55824;52.220;21.040;2023-02-23T16:18:18;4.65;;;3.63;;
39882;SDS011;55824;52.220;21.040;2023-02-23T16:20:45;4.82;;;3.47;;
39882;SDS011;55824;52.220;21.040;2023-02-23T16:23:21;5.32;;;3.75;;
39882;SDS011;55824;52.220;21.040;2023-02-23T16:26:09;6.28;;;3.33;;
39882;SDS011;55824;52.220;21.040;2023-02-23T16:28:36;5.03;;;3.78;;
39882;SDS011;55824;52.220;21.040;2023-02-23T16:31:06;6.72;;;3.75;;
39882;SDS011;55824;52.220;21.040;2023-02-23T16:38:34;4.85;;;3.20;;
39882;SDS011;55824;52.220;21.040;2023-02-23T16:41:03;5.18;;;3.70;;
39882;SDS011;55824;52.220;21.040;2023-02-23T16:43:30;6.78;;;4.00;;
39882;SDS011;55824;52.220;21.040;2023-02-23T16:45:56;5.65;;;3.80;;
39882;SDS011;55824;52.220;21.040;2023-02-23T16:48:22;5.05;;;3.55;;
39882;SDS011;55824;52.220;21.040;2023-02-23T16:50:48;5.53;;;3.70;;
39882;SDS011;55824;52.220;21.040;2023-02-23T16:53:15;4.78;;;3.72;;
39882;SDS011;55824;52.220;21.040;2023-02-23T16:55:44;5.35;;;3.85;;
39882;SDS011;55824;52.220;21.040;2023-02-23T16:58:15;5.97;;;3.90;;